sensor_id;sensor_type;location;lat;lon;timestamp;P1;durP1;ratioP1;P2;durP2;ratioP2
5379;SDS011;2713;42.680;23.310;2024-03-29T00:00:42;3.17;;;1.40;;
5379;SDS011;2713;42.680;23.310;2024-03-29T00:03:09;4.27;;;1.70;;
5379;SDS011;2713;42.680;23.310;2024-03-29T00:05:35;3.27;;;1.60;;
5379;SDS011;2713;42.680;23.310;2024-03-29T00:08:01;1.50;;;1.40;;
5379;SDS011;2713;42.680;23.310;2024-03-29T00:10:28;2.23;;;1.60;;
5379;SDS011;2713;42.680;23.310;2024-03-29T00:12:54;2.00;;;1.50;;
5379;SDS011;2713;42.680;23.310;2024-03-29T00:15:20;1.93;;;1.60;;
5379;SDS011;2713;42.680;23.310;2024-03-29T00:17:45;1.73;;;1.63;;
5379;SDS011;2713;42.680;23.310;2024-03-29T00:20:11;3.53;;;1.40;;
5379;SDS011;2713;42.680;23.310;2024-03-29T00:22:37;1.33;;;1.10;;
5379;SDS011;2713;42.680;23.310;2024-03-29T00:25:03;2.40;;;1.50;;
5379;SDS011;2713;42.680;23.310;2024-03-29T00:27:31;1.67;;;1.40;;
5379;SDS011;2713;42.680;23.310;2024-03-29T00:29:57;2.50;;;1.40;;
5379;SDS011;2713;42.680;23.310;2024-03-29T00:32:23;1.63;;;1.10;;
5379;SDS011;2713;42.680;23.310;2024-03-29T00:34:49;4.63;;;1.20;;
5379;SDS011;2713;42.680;23.310;2024-03-29T00:37:16;1.97;;;1.20;;
5379;SDS011;2713;42.680;23.310;2024-03-29T00:39:42;3.73;;;1.23;;
5379;SDS011;2713;42.680;23.310;2024-03-29T00:42:08;1.63;;;1.27;;
5379;SDS011;2713;42.680;23.310;2024-03-29T00:44:35;2.07;;;1.07;;
5379;SDS011;2713;42.680;23.310;2024-03-29T00:47:01;4.47;;;1.83;;
5379;SDS011;2713;42.680;23.310;2024-03-29T00:49:27;2.33;;;1.30;;
5379;SDS011;2713;42.680;23.310;2024-03-29T00:51:53;2.07;;;1.30;;
5379;SDS011;2713;42.680;23.310;2024-03-29T00:54:18;4.63;;;1.10;;
5379;SDS011;2713;42.680;23.310;2024-03-29T00:56:44;3.00;;;1.30;;
5379;SDS011;2713;42.680;23.310;2024-03-29T00:59:10;1.37;;;1.10;;
5379;SDS011;2713;42.680;23.310;2024-03-29T01:01:37;1.40;;;1.30;;
5379;SDS011;2713;42.680;23.310;2024-03-29T01:04:03;1.50;;;1.30;;
5379;SDS011;2713;42.680;23.310;2024-03-29T01:06:29;1.87;;;1.40;;
5379;SDS011;2713;42.680;23.310;2024-03-29T01:08:55;5.50;;;1.40;;
5379;SDS011;2713;42.680;23.310;2024-03-29T01:11:21;3.73;;;1.40;;
5379;SDS011;2713;42.680;23.310;2024-03-29T01:13:47;2.23;;;1.30;;
5379;SDS011;2713;42.680;23.310;2024-03-29T01:16:13;2.83;;;1.40;;
5379;SDS011;2713;42.680;23.310;2024-03-29T01:18:40;1.73;;;1.47;;
5379;SDS011;2713;42.680;23.310;2024-03-29T01:21:06;1.47;;;1.30;;
5379;SDS011;2713;42.680;23.310;2024-03-29T01:23:32;2.50;;;1.50;;
5379;SDS011;2713;42.680;23.310;2024-03-29T01:25:58;2.70;;;1.10;;
5379;SDS011;2713;42.680;23.310;2024-03-29T01:28:23;2.33;;;1.37;;
5379;SDS011;2713;42.680;23.310;2024-03-29T01:30:52;2.53;;;1.10;;
5379;SDS011;2713;42.680;23.310;2024-03-29T01:33:18;1.80;;;1.30;;
5379;SDS011;2713;42.680;23.310;2024-03-29T01:35:46;3.47;;;1.30;;
5379;SDS011;2713;42.680;23.310;2024-03-29T01:38:12;1.90;;;1.13;;
5379;SDS011;2713;42.680;23.310;2024-03-29T01:40:37;3.10;;;1.60;;
5379;SDS011;2713;42.680;23.310;2024-03-29T01:43:03;1.40;;;1.30;;
5379;SDS011;2713;42.680;23.310;2024-03-29T01:45:29;1.77;;;1.53;;
5379;SDS011;2713;42.680;23.310;2024-03-29T01:47:57;2.70;;;1.40;;
5379;SDS011;2713;42.680;23.310;2024-03-29T01:50:24;1.93;;;1.70;;
5379;SDS011;2713;42.680;23.310;2024-03-29T01:52:53;3.00;;;1.97;;
5379;SDS011;2713;42.680;23.310;2024-03-29T01:55:19;2.23;;;1.70;;
5379;SDS011;2713;42.680;23.310;2024-03-29T01:57:46;3.13;;;1.80;;
5379;SDS011;2713;42.680;23.310;2024-03-29T02:00:14;3.60;;;1.70;;
5379;SDS011;2713;42.680;23.310;2024-03-29T02:02:41;1.77;;;1.40;;
5379;SDS011;2713;42.680;23.310;2024-03-29T02:05:08;3.23;;;1.60;;
5379;SDS011;2713;42.680;23.310;2024-03-29T02:07:35;2.67;;;1.60;;
5379;SDS011;2713;42.680;23.310;2024-03-29T02:10:04;2.00;;;1.57;;
5379;SDS011;2713;42.680;23.310;2024-03-29T02:12:33;5.27;;;1.50;;
5379;SDS011;2713;42.680;23.310;2024-03-29T02:15:00;5.67;;;1.57;;
5379;SDS011;2713;42.680;23.310;2024-03-29T02:17:27;3.17;;;1.40;;
5379;SDS011;2713;42.680;23.310;2024-03-29T02:19:54;2.87;;;2.00;;
5379;SDS011;2713;42.680;23.310;2024-03-29T02:22:21;1.83;;;1.40;;
5379;SDS011;2713;42.680;23.310;2024-03-29T02:24:51;3.43;;;1.70;;
5379;SDS011;2713;42.680;23.310;2024-03-29T02:27:18;4.10;;;2.23;;
5379;SDS011;2713;42.680;23.310;2024-03-29T02:29:46;1.90;;;1.70;;
5379;SDS011;2713;42.680;23.310;2024-03-29T02:32:13;3.30;;;2.03;;
5379;SDS011;2713;42.680;23.310;2024-03-29T02:34:39;3.23;;;2.23;;
5379;SDS011;2713;42.680;23.310;2024-03-29T02:37:06;3.93;;;1.93;;
5379;SDS011;2713;42.680;23.310;2024-03-29T02:39:33;2.20;;;1.63;;
5379;SDS011;2713;42.680;23.310;2024-03-29T02:42:01;2.83;;;1.70;;
5379;SDS011;2713;42.680;23.310;2024-03-29T02:44:28;3.37;;;1.63;;
5379;SDS011;2713;42.680;23.310;2024-03-29T02:46:55;1.60;;;1.50;;
5379;SDS011;2713;42.680;23.310;2024-03-29T02:49:22;2.63;;;1.83;;
5379;SDS011;2713;42.680;23.310;2024-03-29T02:51:48;5.23;;;1.60;;
5379;SDS011;2713;42.680;23.310;2024-03-29T02:54:20;3.43;;;1.93;;
5379;SDS011;2713;42.680;23.310;2024-03-29T02:56:46;4.17;;;2.13;;
5379;SDS011;2713;42.680;23.310;2024-03-29T02:59:14;1.30;;;1.20;;
5379;SDS011;2713;42.680;23.310;2024-03-29T03:01:40;3.30;;;1.50;;
5379;SDS011;2713;42.680;23.310;2024-03-29T03:04:07;2.40;;;1.50;;
5379;SDS011;2713;42.680;23.310;2024-03-29T03:06:32;1.83;;;1.70;;
5379;SDS011;2713;42.680;23.310;2024-03-29T03:08:59;3.63;;;2.33;;
5379;SDS011;2713;42.680;23.310;2024-03-29T03:11:43;3.40;;;1.90;;
5379;SDS011;2713;42.680;23.310;2024-03-29T03:14:10;4.70;;;2.07;;
5379;SDS011;2713;42.680;23.310;2024-03-29T03:16:37;3.83;;;2.17;;
5379;SDS011;2713;42.680;23.310;2024-03-29T03:19:04;3.03;;;1.80;;
5379;SDS011;2713;42.680;23.310;2024-03-29T03:21:30;2.00;;;1.90;;
5379;SDS011;2713;42.680;23.310;2024-03-29T03:23:57;2.03;;;1.67;;
5379;SDS011;2713;42.680;23.310;2024-03-29T03:26:23;2.50;;;1.80;;
5379;SDS011;2713;42.680;23.310;2024-03-29T03:28:49;6.13;;;2.27;;
5379;SDS011;2713;42.680;23.310;2024-03-29T03:31:15;2.30;;;2.10;;
5379;SDS011;2713;42.680;23.310;2024-03-29T03:33:43;2.20;;;2.07;;
5379;SDS011;2713;42.680;23.310;2024-03-29T03:36:09;2.90;;;1.93;;
5379;SDS011;2713;42.680;23.310;2024-03-29T03:38:36;3.43;;;1.70;;
5379;SDS011;2713;42.680;23.310;2024-03-29T03:41:04;4.60;;;1.90;;
5379;SDS011;2713;42.680;23.310;2024-03-29T03:43:30;3.37;;;1.47;;
5379;SDS011;2713;42.680;23.310;2024-03-29T03:45:59;6.17;;;2.40;;
5379;SDS011;2713;42.680;23.310;2024-03-29T03:48:26;5.07;;;2.23;;
5379;SDS011;2713;42.680;23.310;2024-03-29T03:50:55;4.70;;;2.40;;
5379;SDS011;2713;42.680;23.310;2024-03-29T03:53:21;3.77;;;2.13;;
5379;SDS011;2713;42.680;23.310;2024-03-29T03:55:48;4.13;;;2.07;;
5379;SDS011;2713;42.680;23.310;2024-03-29T03:58:14;5.63;;;2.40;;
5379;SDS011;2713;42.680;23.310;2024-03-29T04:00:41;3.77;;;2.20;;
5379;SDS011;2713;42.680;23.310;2024-03-29T04:03:06;3.70;;;2.70;;
5379;SDS011;2713;42.680;23.310;2024-03-29T04:05:36;4.40;;;2.40;;
5379;SDS011;2713;42.680;23.310;2024-03-29T04:08:03;4.60;;;2.20;;
5379;SDS011;2713;42.680;23.310;2024-03-29T04:10:31;2.77;;;1.90;;
5379;SDS011;2713;42.680;23.310;2024-03-29T04:12:56;2.60;;;2.40;;
5379;SDS011;2713;42.680;23.310;2024-03-29T04:15:23;2.97;;;2.60;;
5379;SDS011;2713;42.680;23.310;2024-03-29T04:17:49;5.50;;;2.60;;
5379;SDS011;2713;42.680;23.310;2024-03-29T04:20:16;7.97;;;3.00;;
5379;SDS011;2713;42.680;23.310;2024-03-29T04:22:42;4.93;;;2.90;;
5379;SDS011;2713;42.680;23.310;2024-03-29T04:25:11;6.73;;;3.90;;
5379;SDS011;2713;42.680;23.310;2024-03-29T04:27:37;10.50;;;4.60;;
5379;SDS011;2713;42.680;23.310;2024-03-29T04:30:04;5.97;;;3.30;;
5379;SDS011;2713;42.680;23.310;2024-03-29T04:32:31;4.50;;;3.40;;
5379;SDS011;2713;42.680;23.310;2024-03-29T04:34:58;3.60;;;2.70;;
5379;SDS011;2713;42.680;23.310;2024-03-29T04:37:24;2.70;;;2.37;;
5379;SDS011;2713;42.680;23.310;2024-03-29T04:39:52;12.90;;;4.27;;
5379;SDS011;2713;42.680;23.310;2024-03-29T04:42:21;16.87;;;5.03;;
5379;SDS011;2713;42.680;23.310;2024-03-29T04:44:49;14.27;;;4.30;;
5379;SDS011;2713;42.680;23.310;2024-03-29T04:47:16;7.90;;;3.50;;
5379;SDS011;2713;42.680;23.310;2024-03-29T04:49:44;5.30;;;3.10;;
5379;SDS011;2713;42.680;23.310;2024-03-29T04:52:10;4.10;;;2.30;;
5379;SDS011;2713;42.680;23.310;2024-03-29T04:54:39;6.97;;;2.60;;
5379;SDS011;2713;42.680;23.310;2024-03-29T04:57:10;9.70;;;3.27;;
5379;SDS011;2713;42.680;23.310;2024-03-29T04:59:39;8.10;;;3.13;;
5379;SDS011;2713;42.680;23.310;2024-03-29T05:02:06;7.80;;;3.83;;
5379;SDS011;2713;42.680;23.310;2024-03-29T05:04:33;6.13;;;2.80;;
5379;SDS011;2713;42.680;23.310;2024-03-29T05:07:00;5.23;;;3.67;;
5379;SDS011;2713;42.680;23.310;2024-03-29T05:09:27;13.07;;;3.70;;
5379;SDS011;2713;42.680;23.310;2024-03-29T05:11:53;14.00;;;3.83;;
5379;SDS011;2713;42.680;23.310;2024-03-29T05:14:20;4.03;;;3.50;;
5379;SDS011;2713;42.680;23.310;2024-03-29T05:16:49;7.13;;;2.80;;
5379;SDS011;2713;42.680;23.310;2024-03-29T05:19:16;4.60;;;2.83;;
5379;SDS011;2713;42.680;23.310;2024-03-29T05:21:43;5.87;;;3.23;;
5379;SDS011;2713;42.680;23.310;2024-03-29T05:24:10;6.17;;;3.27;;
5379;SDS011;2713;42.680;23.310;2024-03-29T05:26:37;5.67;;;3.90;;
5379;SDS011;2713;42.680;23.310;2024-03-29T05:29:03;3.97;;;3.50;;
5379;SDS011;2713;42.680;23.310;2024-03-29T05:31:30;3.90;;;2.97;;
5379;SDS011;2713;42.680;23.310;2024-03-29T05:33:58;5.53;;;3.40;;
5379;SDS011;2713;42.680;23.310;2024-03-29T05:36:27;12.80;;;3.13;;
5379;SDS011;2713;42.680;23.310;2024-03-29T05:38:53;11.43;;;3.30;;
5379;SDS011;2713;42.680;23.310;2024-03-29T05:41:21;4.37;;;3.00;;
5379;SDS011;2713;42.680;23.310;2024-03-29T05:43:48;7.80;;;3.00;;
5379;SDS011;2713;42.680;23.310;2024-03-29T05:46:15;6.80;;;3.07;;
5379;SDS011;2713;42.680;23.310;2024-03-29T05:48:43;5.10;;;3.60;;
5379;SDS011;2713;42.680;23.310;2024-03-29T05:51:11;11.13;;;3.83;;
5379;SDS011;2713;42.680;23.310;2024-03-29T05:53:38;7.90;;;3.67;;
5379;SDS011;2713;42.680;23.310;2024-03-29T05:56:05;7.57;;;3.60;;
5379;SDS011;2713;42.680;23.310;2024-03-29T05:58:33;11.90;;;4.23;;
5379;SDS011;2713;42.680;23.310;2024-03-29T06:01:00;8.10;;;4.50;;
5379;SDS011;2713;42.680;23.310;2024-03-29T06:03:27;6.00;;;4.10;;
5379;SDS011;2713;42.680;23.310;2024-03-29T06:05:54;11.10;;;3.77;;
5379;SDS011;2713;42.680;23.310;2024-03-29T06:08:22;5.50;;;3.27;;
5379;SDS011;2713;42.680;23.310;2024-03-29T06:10:51;8.50;;;3.87;;
5379;SDS011;2713;42.680;23.310;2024-03-29T06:13:18;5.40;;;3.30;;
5379;SDS011;2713;42.680;23.310;2024-03-29T06:16:14;5.60;;;3.50;;
5379;SDS011;2713;42.680;23.310;2024-03-29T06:18:58;7.30;;;3.33;;
5379;SDS011;2713;42.680;23.310;2024-03-29T06:21:25;3.70;;;2.63;;
5379;SDS011;2713;42.680;23.310;2024-03-29T06:23:53;8.93;;;2.77;;
5379;SDS011;2713;42.680;23.310;2024-03-29T06:26:20;3.57;;;2.77;;
5379;SDS011;2713;42.680;23.310;2024-03-29T06:28:47;7.07;;;2.57;;
5379;SDS011;2713;42.680;23.310;2024-03-29T06:31:13;4.40;;;3.27;;
5379;SDS011;2713;42.680;23.310;2024-03-29T06:33:40;5.03;;;1.90;;
5379;SDS011;2713;42.680;23.310;2024-03-29T06:36:07;2.73;;;1.60;;
5379;SDS011;2713;42.680;23.310;2024-03-29T06:38:34;1.80;;;1.40;;
5379;SDS011;2713;42.680;23.310;2024-03-29T06:41:02;1.33;;;1.20;;
5379;SDS011;2713;42.680;23.310;2024-03-29T06:43:29;1.43;;;1.17;;
5379;SDS011;2713;42.680;23.310;2024-03-29T06:45:56;2.93;;;1.40;;
5379;SDS011;2713;42.680;23.310;2024-03-29T06:48:24;3.30;;;1.30;;
5379;SDS011;2713;42.680;23.310;2024-03-29T06:50:51;4.47;;;1.80;;
5379;SDS011;2713;42.680;23.310;2024-03-29T06:53:17;3.47;;;1.90;;
5379;SDS011;2713;42.680;23.310;2024-03-29T06:55:45;2.83;;;1.30;;
5379;SDS011;2713;42.680;23.310;2024-03-29T06:58:14;1.90;;;1.37;;
5379;SDS011;2713;42.680;23.310;2024-03-29T07:00:41;1.50;;;1.30;;
5379;SDS011;2713;42.680;23.310;2024-03-29T07:03:09;5.47;;;1.30;;
5379;SDS011;2713;42.680;23.310;2024-03-29T07:05:36;2.33;;;1.40;;
5379;SDS011;2713;42.680;23.310;2024-03-29T07:08:03;2.20;;;0.97;;
5379;SDS011;2713;42.680;23.310;2024-03-29T07:10:30;1.63;;;1.33;;
5379;SDS011;2713;42.680;23.310;2024-03-29T07:12:57;1.90;;;1.10;;
5379;SDS011;2713;42.680;23.310;2024-03-29T07:15:25;4.20;;;1.33;;
5379;SDS011;2713;42.680;23.310;2024-03-29T07:17:52;1.80;;;1.40;;
5379;SDS011;2713;42.680;23.310;2024-03-29T07:20:19;3.80;;;1.73;;
5379;SDS011;2713;42.680;23.310;2024-03-29T07:22:46;2.17;;;1.60;;
5379;SDS011;2713;42.680;23.310;2024-03-29T07:25:13;1.70;;;1.20;;
5379;SDS011;2713;42.680;23.310;2024-03-29T07:27:39;4.90;;;1.40;;
5379;SDS011;2713;42.680;23.310;2024-03-29T07:30:06;4.30;;;1.77;;
5379;SDS011;2713;42.680;23.310;2024-03-29T07:32:36;3.47;;;1.60;;
5379;SDS011;2713;42.680;23.310;2024-03-29T07:35:03;3.33;;;1.70;;
5379;SDS011;2713;42.680;23.310;2024-03-29T07:37:30;1.53;;;1.23;;
5379;SDS011;2713;42.680;23.310;2024-03-29T07:39:57;5.23;;;1.50;;
5379;SDS011;2713;42.680;23.310;2024-03-29T07:42:24;4.63;;;1.60;;
5379;SDS011;2713;42.680;23.310;2024-03-29T07:44:51;3.83;;;2.30;;
5379;SDS011;2713;42.680;23.310;2024-03-29T07:47:18;2.70;;;2.43;;
5379;SDS011;2713;42.680;23.310;2024-03-29T07:49:48;3.03;;;1.50;;
5379;SDS011;2713;42.680;23.310;2024-03-29T07:52:15;1.47;;;1.37;;
5379;SDS011;2713;42.680;23.310;2024-03-29T07:54:42;1.83;;;1.53;;
5379;SDS011;2713;42.680;23.310;2024-03-29T07:57:09;2.70;;;1.40;;
5379;SDS011;2713;42.680;23.310;2024-03-29T07:59:36;2.60;;;1.40;;
5379;SDS011;2713;42.680;23.310;2024-03-29T08:02:04;3.93;;;1.67;;
5379;SDS011;2713;42.680;23.310;2024-03-29T08:04:31;3.83;;;1.47;;
5379;SDS011;2713;42.680;23.310;2024-03-29T08:06:59;4.03;;;1.20;;
5379;SDS011;2713;42.680;23.310;2024-03-29T08:09:26;1.90;;;1.70;;
5379;SDS011;2713;42.680;23.310;2024-03-29T08:11:53;2.23;;;1.40;;
5379;SDS011;2713;42.680;23.310;2024-03-29T08:14:19;2.90;;;1.40;;
5379;SDS011;2713;42.680;23.310;2024-03-29T08:16:46;2.87;;;1.83;;
5379;SDS011;2713;42.680;23.310;2024-03-29T08:19:13;2.53;;;1.30;;
5379;SDS011;2713;42.680;23.310;2024-03-29T08:21:40;4.20;;;1.70;;
5379;SDS011;2713;42.680;23.310;2024-03-29T08:24:08;2.87;;;1.30;;
5379;SDS011;2713;42.680;23.310;2024-03-29T08:26:35;23.23;;;4.13;;
5379;SDS011;2713;42.680;23.310;2024-03-29T08:29:02;3.30;;;2.43;;
5379;SDS011;2713;42.680;23.310;2024-03-29T08:31:28;1.67;;;1.57;;
5379;SDS011;2713;42.680;23.310;2024-03-29T08:33:55;3.10;;;1.53;;
5379;SDS011;2713;42.680;23.310;2024-03-29T08:36:23;2.23;;;1.20;;
5379;SDS011;2713;42.680;23.310;2024-03-29T08:38:50;2.43;;;1.43;;
5379;SDS011;2713;42.680;23.310;2024-03-29T08:41:18;1.97;;;1.20;;
5379;SDS011;2713;42.680;23.310;2024-03-29T08:43:45;3.53;;;1.83;;
5379;SDS011;2713;42.680;23.310;2024-03-29T08:46:12;4.53;;;1.90;;
5379;SDS011;2713;42.680;23.310;2024-03-29T08:48:38;3.30;;;1.20;;
5379;SDS011;2713;42.680;23.310;2024-03-29T08:51:08;1.13;;;0.97;;
5379;SDS011;2713;42.680;23.310;2024-03-29T08:53:35;2.00;;;1.20;;
5379;SDS011;2713;42.680;23.310;2024-03-29T08:56:02;2.90;;;1.50;;
5379;SDS011;2713;42.680;23.310;2024-03-29T08:58:31;4.93;;;1.47;;
5379;SDS011;2713;42.680;23.310;2024-03-29T09:00:58;1.10;;;1.00;;
5379;SDS011;2713;42.680;23.310;2024-03-29T09:03:29;2.30;;;1.30;;
5379;SDS011;2713;42.680;23.310;2024-03-29T09:05:56;3.90;;;1.30;;
5379;SDS011;2713;42.680;23.310;2024-03-29T09:08:23;5.63;;;1.60;;
5379;SDS011;2713;42.680;23.310;2024-03-29T09:10:50;1.87;;;1.17;;
5379;SDS011;2713;42.680;23.310;2024-03-29T09:13:16;3.93;;;1.43;;
5379;SDS011;2713;42.680;23.310;2024-03-29T09:15:45;1.97;;;1.10;;
5379;SDS011;2713;42.680;23.310;2024-03-29T09:18:12;2.73;;;1.30;;
5379;SDS011;2713;42.680;23.310;2024-03-29T09:20:55;1.67;;;1.43;;
5379;SDS011;2713;42.680;23.310;2024-03-29T09:23:22;5.40;;;1.40;;
5379;SDS011;2713;42.680;23.310;2024-03-29T09:25:50;2.50;;;1.20;;
5379;SDS011;2713;42.680;23.310;2024-03-29T09:28:21;1.60;;;1.27;;
5379;SDS011;2713;42.680;23.310;2024-03-29T09:30:50;4.57;;;1.80;;
5379;SDS011;2713;42.680;23.310;2024-03-29T09:33:17;6.30;;;1.30;;
5379;SDS011;2713;42.680;23.310;2024-03-29T09:35:43;3.70;;;1.20;;
5379;SDS011;2713;42.680;23.310;2024-03-29T09:38:13;6.13;;;1.47;;
5379;SDS011;2713;42.680;23.310;2024-03-29T09:40:40;3.50;;;2.00;;
5379;SDS011;2713;42.680;23.310;2024-03-29T09:43:07;3.73;;;1.83;;
5379;SDS011;2713;42.680;23.310;2024-03-29T09:45:37;8.90;;;2.83;;
5379;SDS011;2713;42.680;23.310;2024-03-29T09:48:06;4.27;;;2.50;;
5379;SDS011;2713;42.680;23.310;2024-03-29T09:50:35;2.80;;;1.40;;
5379;SDS011;2713;42.680;23.310;2024-03-29T09:53:02;2.87;;;1.80;;
5379;SDS011;2713;42.680;23.310;2024-03-29T09:55:31;2.20;;;1.27;;
5379;SDS011;2713;42.680;23.310;2024-03-29T09:57:58;3.83;;;1.57;;
5379;SDS011;2713;42.680;23.310;2024-03-29T10:00:25;2.20;;;1.27;;
5379;SDS011;2713;42.680;23.310;2024-03-29T10:02:55;2.90;;;1.57;;
5379;SDS011;2713;42.680;23.310;2024-03-29T10:05:24;2.90;;;1.30;;
5379;SDS011;2713;42.680;23.310;2024-03-29T10:07:52;7.03;;;2.20;;
5379;SDS011;2713;42.680;23.310;2024-03-29T10:10:21;3.57;;;1.70;;
5379;SDS011;2713;42.680;23.310;2024-03-29T10:12:48;2.63;;;1.73;;
5379;SDS011;2713;42.680;23.310;2024-03-29T10:15:15;2.00;;;1.20;;
5379;SDS011;2713;42.680;23.310;2024-03-29T10:17:45;2.40;;;1.57;;
5379;SDS011;2713;42.680;23.310;2024-03-29T10:20:15;2.97;;;1.60;;
5379;SDS011;2713;42.680;23.310;2024-03-29T10:22:44;3.60;;;2.00;;
5379;SDS011;2713;42.680;23.310;2024-03-29T10:25:12;2.33;;;1.50;;
5379;SDS011;2713;42.680;23.310;2024-03-29T10:27:39;2.40;;;1.30;;
5379;SDS011;2713;42.680;23.310;2024-03-29T10:30:06;3.63;;;1.77;;
5379;SDS011;2713;42.680;23.310;2024-03-29T10:32:36;2.33;;;1.40;;
5379;SDS011;2713;42.680;23.310;2024-03-29T10:35:04;4.67;;;2.63;;
5379;SDS011;2713;42.680;23.310;2024-03-29T10:37:31;4.30;;;1.93;;
5379;SDS011;2713;42.680;23.310;2024-03-29T10:40:05;2.23;;;1.33;;
5379;SDS011;2713;42.680;23.310;2024-03-29T10:42:33;4.37;;;1.50;;
5379;SDS011;2713;42.680;23.310;2024-03-29T10:45:02;5.47;;;1.50;;
5379;SDS011;2713;42.680;23.310;2024-03-29T10:47:31;1.87;;;1.27;;
5379;SDS011;2713;42.680;23.310;2024-03-29T10:49:59;2.80;;;1.43;;
5379;SDS011;2713;42.680;23.310;2024-03-29T10:52:27;2.43;;;1.70;;
5379;SDS011;2713;42.680;23.310;2024-03-29T10:54:54;7.47;;;2.53;;
5379;SDS011;2713;42.680;23.310;2024-03-29T10:57:24;2.10;;;1.47;;
5379;SDS011;2713;42.680;23.310;2024-03-29T10:59:54;5.30;;;1.80;;
5379;SDS011;2713;42.680;23.310;2024-03-29T11:02:31;5.37;;;1.60;;
5379;SDS011;2713;42.680;23.310;2024-03-29T11:05:02;3.30;;;1.27;;
5379;SDS011;2713;42.680;23.310;2024-03-29T11:07:34;3.30;;;1.70;;
5379;SDS011;2713;42.680;23.310;2024-03-29T11:10:05;3.20;;;1.70;;
5379;SDS011;2713;42.680;23.310;2024-03-29T11:12:35;3.50;;;1.20;;
5379;SDS011;2713;42.680;23.310;2024-03-29T11:15:09;6.33;;;3.00;;
5379;SDS011;2713;42.680;23.310;2024-03-29T11:17:48;7.50;;;1.70;;
5379;SDS011;2713;42.680;23.310;2024-03-29T11:20:16;3.67;;;1.70;;
5379;SDS011;2713;42.680;23.310;2024-03-29T11:22:49;2.17;;;1.40;;
5379;SDS011;2713;42.680;23.310;2024-03-29T11:25:17;3.97;;;1.70;;
5379;SDS011;2713;42.680;23.310;2024-03-29T11:42:36;5.20;;;2.30;;
5379;SDS011;2713;42.680;23.310;2024-03-29T11:45:05;3.20;;;1.30;;
5379;SDS011;2713;42.680;23.310;2024-03-29T11:47:35;3.43;;;1.50;;
5379;SDS011;2713;42.680;23.310;2024-03-29T11:50:05;8.80;;;2.10;;
5379;SDS011;2713;42.680;23.310;2024-03-29T11:52:33;9.50;;;2.73;;
5379;SDS011;2713;42.680;23.310;2024-03-29T11:55:00;3.97;;;1.87;;
5379;SDS011;2713;42.680;23.310;2024-03-29T11:57:27;3.20;;;1.50;;
5379;SDS011;2713;42.680;23.310;2024-03-29T11:59:57;2.70;;;1.30;;
5379;SDS011;2713;42.680;23.310;2024-03-29T12:02:23;4.40;;;1.53;;
5379;SDS011;2713;42.680;23.310;2024-03-29T12:04:50;6.63;;;2.40;;
5379;SDS011;2713;42.680;23.310;2024-03-29T12:07:17;7.47;;;2.07;;
5379;SDS011;2713;42.680;23.310;2024-03-29T12:09:44;3.27;;;1.83;;
5379;SDS011;2713;42.680;23.310;2024-03-29T12:12:11;2.50;;;1.50;;
5379;SDS011;2713;42.680;23.310;2024-03-29T12:14:42;2.67;;;1.70;;
5379;SDS011;2713;42.680;23.310;2024-03-29T12:17:11;4.33;;;1.57;;
5379;SDS011;2713;42.680;23.310;2024-03-29T12:19:37;3.90;;;1.90;;
5379;SDS011;2713;42.680;23.310;2024-03-29T12:22:07;4.90;;;1.60;;
5379;SDS011;2713;42.680;23.310;2024-03-29T12:24:34;4.57;;;1.50;;
5379;SDS011;2713;42.680;23.310;2024-03-29T12:27:02;3.83;;;1.67;;
5379;SDS011;2713;42.680;23.310;2024-03-29T12:29:29;1.40;;;1.23;;
5379;SDS011;2713;42.680;23.310;2024-03-29T12:31:56;3.67;;;1.57;;
5379;SDS011;2713;42.680;23.310;2024-03-29T12:34:26;2.53;;;1.57;;
5379;SDS011;2713;42.680;23.310;2024-03-29T12:36:53;5.97;;;1.53;;
5379;SDS011;2713;42.680;23.310;2024-03-29T12:39:19;2.10;;;1.57;;
5379;SDS011;2713;42.680;23.310;2024-03-29T12:41:47;2.23;;;1.67;;
5379;SDS011;2713;42.680;23.310;2024-03-29T12:44:14;3.43;;;1.27;;
5379;SDS011;2713;42.680;23.310;2024-03-29T12:46:41;2.53;;;1.60;;
5379;SDS011;2713;42.680;23.310;2024-03-29T12:49:10;2.33;;;1.30;;
5379;SDS011;2713;42.680;23.310;2024-03-29T12:51:38;3.00;;;2.30;;
5379;SDS011;2713;42.680;23.310;2024-03-29T12:54:06;4.33;;;1.50;;
5379;SDS011;2713;42.680;23.310;2024-03-29T12:56:34;3.80;;;1.60;;
5379;SDS011;2713;42.680;23.310;2024-03-29T12:59:01;3.40;;;1.57;;
5379;SDS011;2713;42.680;23.310;2024-03-29T13:01:29;4.33;;;2.30;;
5379;SDS011;2713;42.680;23.310;2024-03-29T13:03:56;3.63;;;2.20;;
5379;SDS011;2713;42.680;23.310;2024-03-29T13:06:23;5.70;;;1.70;;
5379;SDS011;2713;42.680;23.310;2024-03-29T13:08:53;3.00;;;1.60;;
5379;SDS011;2713;42.680;23.310;2024-03-29T13:11:21;3.13;;;1.20;;
5379;SDS011;2713;42.680;23.310;2024-03-29T13:13:54;2.93;;;1.43;;
5379;SDS011;2713;42.680;23.310;2024-03-29T13:16:21;2.83;;;1.37;;
5379;SDS011;2713;42.680;23.310;2024-03-29T13:18:50;3.40;;;1.23;;
5379;SDS011;2713;42.680;23.310;2024-03-29T13:21:17;4.40;;;1.60;;
5379;SDS011;2713;42.680;23.310;2024-03-29T13:23:46;2.67;;;1.10;;
5379;SDS011;2713;42.680;23.310;2024-03-29T13:26:14;1.33;;;1.23;;
5379;SDS011;2713;42.680;23.310;2024-03-29T13:28:41;1.93;;;1.30;;
5379;SDS011;2713;42.680;23.310;2024-03-29T13:31:07;3.30;;;1.33;;
5379;SDS011;2713;42.680;23.310;2024-03-29T13:33:34;1.00;;;0.80;;
5379;SDS011;2713;42.680;23.310;2024-03-29T13:36:03;1.73;;;1.00;;
5379;SDS011;2713;42.680;23.310;2024-03-29T13:38:30;2.47;;;1.80;;
5379;SDS011;2713;42.680;23.310;2024-03-29T13:40:57;2.17;;;1.07;;
5379;SDS011;2713;42.680;23.310;2024-03-29T13:43:28;3.43;;;1.30;;
5379;SDS011;2713;42.680;23.310;2024-03-29T13:45:55;3.23;;;1.50;;
5379;SDS011;2713;42.680;23.310;2024-03-29T13:48:23;1.73;;;1.60;;
5379;SDS011;2713;42.680;23.310;2024-03-29T13:50:50;2.80;;;1.60;;
5379;SDS011;2713;42.680;23.310;2024-03-29T13:53:17;3.70;;;2.03;;
5379;SDS011;2713;42.680;23.310;2024-03-29T13:55:44;4.83;;;2.27;;
5379;SDS011;2713;42.680;23.310;2024-03-29T13:58:11;2.73;;;1.57;;
5379;SDS011;2713;42.680;23.310;2024-03-29T14:00:39;3.10;;;1.30;;
5379;SDS011;2713;42.680;23.310;2024-03-29T14:03:06;2.23;;;1.80;;
5379;SDS011;2713;42.680;23.310;2024-03-29T14:05:33;5.70;;;3.20;;
5379;SDS011;2713;42.680;23.310;2024-03-29T14:08:01;1.60;;;1.50;;
5379;SDS011;2713;42.680;23.310;2024-03-29T14:10:28;3.13;;;1.63;;
5379;SDS011;2713;42.680;23.310;2024-03-29T14:12:55;2.70;;;1.30;;
5379;SDS011;2713;42.680;23.310;2024-03-29T14:15:22;2.37;;;1.70;;
5379;SDS011;2713;42.680;23.310;2024-03-29T14:17:50;3.77;;;1.40;;
5379;SDS011;2713;42.680;23.310;2024-03-29T14:20:17;2.77;;;1.63;;
5379;SDS011;2713;42.680;23.310;2024-03-29T14:22:44;2.03;;;1.90;;
5379;SDS011;2713;42.680;23.310;2024-03-29T14:25:12;2.40;;;1.37;;
5379;SDS011;2713;42.680;23.310;2024-03-29T14:27:39;1.50;;;1.30;;
5379;SDS011;2713;42.680;23.310;2024-03-29T14:30:12;3.63;;;1.43;;
5379;SDS011;2713;42.680;23.310;2024-03-29T14:32:40;4.77;;;1.77;;
5379;SDS011;2713;42.680;23.310;2024-03-29T14:35:13;1.90;;;1.70;;
5379;SDS011;2713;42.680;23.310;2024-03-29T14:37:41;1.30;;;1.20;;
5379;SDS011;2713;42.680;23.310;2024-03-29T14:40:08;1.63;;;1.30;;
5379;SDS011;2713;42.680;23.310;2024-03-29T14:42:37;2.30;;;1.37;;
5379;SDS011;2713;42.680;23.310;2024-03-29T14:45:04;1.47;;;0.90;;
5379;SDS011;2713;42.680;23.310;2024-03-29T14:47:32;2.37;;;1.83;;
5379;SDS011;2713;42.680;23.310;2024-03-29T14:49:59;3.47;;;1.50;;
5379;SDS011;2713;42.680;23.310;2024-03-29T14:52:27;3.80;;;1.30;;
5379;SDS011;2713;42.680;23.310;2024-03-29T14:54:54;2.40;;;1.43;;
5379;SDS011;2713;42.680;23.310;2024-03-29T14:57:21;2.40;;;1.37;;
5379;SDS011;2713;42.680;23.310;2024-03-29T14:59:47;4.17;;;1.20;;
5379;SDS011;2713;42.680;23.310;2024-03-29T15:02:14;2.63;;;1.73;;
5379;SDS011;2713;42.680;23.310;2024-03-29T15:04:42;2.90;;;1.53;;
5379;SDS011;2713;42.680;23.310;2024-03-29T15:07:10;4.73;;;2.10;;
5379;SDS011;2713;42.680;23.310;2024-03-29T15:09:40;3.07;;;2.60;;
5379;SDS011;2713;42.680;23.310;2024-03-29T15:12:07;2.70;;;1.70;;
5379;SDS011;2713;42.680;23.310;2024-03-29T15:14:34;4.73;;;1.70;;
5379;SDS011;2713;42.680;23.310;2024-03-29T15:17:01;4.57;;;1.70;;